sensor_id;sensor_type;location;lat;lon;timestamp;pressure;altitude;pressure_sealevel;temperature;humidity
50226;BME280;36113;50.742;6.432;2023-03-20T00:03:46;112741.81;;;-145.50;100.00
50226;BME280;36113;50.742;6.432;2023-03-20T00:06:22;112741.81;;;-145.50;100.00
50226;BME280;36113;50.742;6.432;2023-03-20T00:08:50;112741.81;;;-145.50;100.00
50226;BME280;36113;50.742;6.432;2023-03-20T00:14:03;112741.81;;;-145.50;100.00
50226;BME280;36113;50.742;6.432;2023-03-20T00:16:35;112741.81;;;-145.50;100.00
50226;BME280;36113;50.742;6.432;2023-03-20T00:19:01;112741.81;;;-145.50;100.00
50226;BME280;36113;50.742;6.432;2023-03-20T00:21:27;112741.81;;;-145.50;100.00
50226;BME280;36113;50.742;6.432;2023-03-20T00:23:53;112741.81;;;-145.50;100.00
50226;BME280;36113;50.742;6.432;2023-03-20T00:26:21;112741.81;;;-145.50;100.00
50226;BME280;36113;50.742;6.432;2023-03-20T00:28:49;112741.81;;;-145.50;100.00
50226;BME280;36113;50.742;6.432;2023-03-20T00:31:23;112741.81;;;-145.50;100.00
50226;BME280;36113;50.742;6.432;2023-03-20T00:33:50;112741.81;;;-145.50;100.00
50226;BME280;36113;50.742;6.432;2023-03-20T00:36:16;112741.81;;;-145.50;100.00
50226;BME280;36113;50.742;6.432;2023-03-20T00:38:41;112741.81;;;-145.50;100.00
50226;BME280;36113;50.742;6.432;2023-03-20T00:44:23;112741.81;;;-145.50;100.00
50226;BME280;36113;50.742;6.432;2023-03-20T00:46:55;112741.81;;;-145.50;100.00
50226;BME280;36113;50.742;6.432;2023-03-20T00:49:26;112741.81;;;-145.50;100.00
50226;BME280;36113;50.742;6.432;2023-03-20T00:51:52;112741.81;;;-145.50;100.00
50226;BME280;36113;50.742;6.432;2023-03-20T00:54:18;112741.81;;;-145.50;100.00
50226;BME280;36113;50.742;6.432;2023-03-20T00:57:25;112741.81;;;-145.50;100.00
50226;BME280;36113;50.742;6.432;2023-03-20T00:59:59;112741.81;;;-145.50;100.00
50226;BME280;36113;50.742;6.432;2023-03-20T01:02:27;112741.81;;;-145.50;100.00
50226;BME280;36113;50.742;6.432;2023-03-20T01:04:53;112741.81;;;-145.50;99.76
50226;BME280;36113;50.742;6.432;2023-03-20T01:07:19;112741.81;;;-145.50;99.75
50226;BME280;36113;50.742;6.432;2023-03-20T01:09:45;112741.81;;;-145.50;99.95
50226;BME280;36113;50.742;6.432;2023-03-20T01:12:12;112741.81;;;-145.50;99.41
50226;BME280;36113;50.742;6.432;2023-03-20T01:14:38;112741.81;;;-145.50;98.87
50226;BME280;36113;50.742;6.432;2023-03-20T01:17:03;112741.81;;;-145.50;98.84
50226;BME280;36113;50.742;6.432;2023-03-20T01:19:28;112741.81;;;-145.50;98.91
50226;BME280;36113;50.742;6.432;2023-03-20T01:21:54;112741.81;;;-145.50;98.81
50226;BME280;36113;50.742;6.432;2023-03-20T01:24:19;112741.81;;;-145.50;98.88
50226;BME280;36113;50.742;6.432;2023-03-20T01:26:45;112741.81;;;-145.50;99.42
50226;BME280;36113;50.742;6.432;2023-03-20T01:29:24;112741.81;;;-145.50;99.70
50226;BME280;36113;50.742;6.432;2023-03-20T01:31:50;112741.81;;;-145.50;100.00
50226;BME280;36113;50.742;6.432;2023-03-20T01:34:16;112741.81;;;-145.50;99.93
50226;BME280;36113;50.742;6.432;2023-03-20T01:36:48;112741.81;;;-145.50;99.89
50226;BME280;36113;50.742;6.432;2023-03-20T01:39:15;112741.81;;;-145.50;99.89
50226;BME280;36113;50.742;6.432;2023-03-20T01:41:41;112741.81;;;-145.50;100.00
50226;BME280;36113;50.742;6.432;2023-03-20T01:46:46;112741.81;;;-145.50;99.70
50226;BME280;36113;50.742;6.432;2023-03-20T01:51:44;112741.81;;;-145.50;99.68
50226;BME280;36113;50.742;6.432;2023-03-20T01:54:14;112741.81;;;-145.50;99.56
50226;BME280;36113;50.742;6.432;2023-03-20T01:56:46;112741.81;;;-145.50;99.61
50226;BME280;36113;50.742;6.432;2023-03-20T01:59:19;112741.81;;;-145.50;99.21
50226;BME280;36113;50.742;6.432;2023-03-20T02:01:46;112741.81;;;-145.50;98.67
50226;BME280;36113;50.742;6.432;2023-03-20T02:04:13;112741.81;;;-145.50;98.91
50226;BME280;36113;50.742;6.432;2023-03-20T02:06:40;112741.81;;;-145.50;98.82
50226;BME280;36113;50.742;6.432;2023-03-20T02:09:06;112741.81;;;-145.50;98.88
50226;BME280;36113;50.742;6.432;2023-03-20T02:11:32;112741.81;;;-145.50;98.79
50226;BME280;36113;50.742;6.432;2023-03-20T02:14:00;112741.81;;;-145.50;98.72
50226;BME280;36113;50.742;6.432;2023-03-20T02:16:26;112741.81;;;-145.50;99.28
50226;BME280;36113;50.742;6.432;2023-03-20T02:18:53;112741.81;;;-145.50;99.52
50226;BME280;36113;50.742;6.432;2023-03-20T02:27:24;112741.81;;;-145.50;100.00
50226;BME280;36113;50.742;6.432;2023-03-20T02:48:54;112741.81;;;-145.50;100.00
50226;BME280;36113;50.742;6.432;2023-03-20T02:51:59;112741.81;;;-145.50;100.00
50226;BME280;36113;50.742;6.432;2023-03-20T02:54:45;112741.81;;;-145.50;100.00
50226;BME280;36113;50.742;6.432;2023-03-20T02:57:18;112741.81;;;-145.50;100.00
50226;BME280;36113;50.742;6.432;2023-03-20T03:02:19;112741.81;;;-145.50;100.00
50226;BME280;36113;50.742;6.432;2023-03-20T03:04:50;112741.81;;;-145.50;100.00
50226;BME280;36113;50.742;6.432;2023-03-20T03:07:19;112741.81;;;-145.50;100.00
50226;BME280;36113;50.742;6.432;2023-03-20T03:09:55;112741.81;;;-145.50;100.00
50226;BME280;36113;50.742;6.432;2023-03-20T03:12:28;112741.81;;;-145.50;100.00
50226;BME280;36113;50.742;6.432;2023-03-20T03:14:59;112741.81;;;-145.50;100.00
50226;BME280;36113;50.742;6.432;2023-03-20T03:17:29;112741.81;;;-145.50;100.00
50226;BME280;36113;50.742;6.432;2023-03-20T03:19:59;112741.81;;;-145.50;100.00
50226;BME280;36113;50.742;6.432;2023-03-20T03:22:26;112741.81;;;-145.50;100.00
50226;BME280;36113;50.742;6.432;2023-03-20T03:24:52;112741.81;;;-145.50;100.00
50226;BME280;36113;50.742;6.432;2023-03-20T03:27:48;112741.81;;;-145.50;100.00
50226;BME280;36113;50.742;6.432;2023-03-20T03:30:24;112741.81;;;-145.50;100.00
50226;BME280;36113;50.742;6.432;2023-03-20T03:33:14;112741.81;;;-145.50;100.00
50226;BME280;36113;50.742;6.432;2023-03-20T03:35:44;112741.81;;;-145.50;100.00
50226;BME280;36113;50.742;6.432;2023-03-20T03:38:30;112741.81;;;-145.50;100.00
50226;BME280;36113;50.742;6.432;2023-03-20T03:44:00;112741.81;;;-145.50;100.00
50226;BME280;36113;50.742;6.432;2023-03-20T03:49:19;112741.81;;;-145.50;100.00
50226;BME280;36113;50.742;6.432;2023-03-20T03:51:48;112741.81;;;-145.50;100.00
50226;BME280;36113;50.742;6.432;2023-03-20T03:54:29;112741.81;;;-145.50;100.00
50226;BME280;36113;50.742;6.432;2023-03-20T03:56:57;112741.81;;;-145.50;100.00
50226;BME280;36113;50.742;6.432;2023-03-20T03:59:44;112741.81;;;-145.50;100.00
50226;BME280;36113;50.742;6.432;2023-03-20T04:02:09;112741.81;;;-145.50;100.00
50226;BME280;36113;50.742;6.432;2023-03-20T04:04:39;112741.81;;;-145.50;100.00
50226;BME280;36113;50.742;6.432;2023-03-20T04:07:06;112741.81;;;-145.50;100.00
50226;BME280;36113;50.742;6.432;2023-03-20T04:09:32;112741.81;;;-145.50;100.00
50226;BME280;36113;50.742;6.432;2023-03-20T04:11:58;112741.81;;;-145.50;100.00
50226;BME280;36113;50.742;6.432;2023-03-20T04:14:23;112741.81;;;-145.50;100.00
50226;BME280;36113;50.742;6.432;2023-03-20T04:16:49;112741.81;;;-145.50;100.00
50226;BME280;36113;50.742;6.432;2023-03-20T04:19:14;112741.81;;;-145.50;100.00
50226;BME280;36113;50.742;6.432;2023-03-20T04:21:39;112741.81;;;-145.50;100.00
50226;BME280;36113;50.742;6.432;2023-03-20T04:24:05;112741.81;;;-145.50;100.00
50226;BME280;36113;50.742;6.432;2023-03-20T04:26:31;112741.81;;;-145.50;100.00
50226;BME280;36113;50.742;6.432;2023-03-20T04:28:56;112741.81;;;-145.50;100.00
50226;BME280;36113;50.742;6.432;2023-03-20T04:31:21;112741.81;;;-145.50;100.00
50226;BME280;36113;50.742;6.432;2023-03-20T04:33:47;112741.81;;;-145.50;100.00
50226;BME280;36113;50.742;6.432;2023-03-20T04:36:13;112741.81;;;-145.50;100.00
50226;BME280;36113;50.742;6.432;2023-03-20T04:38:41;112741.81;;;-145.50;100.00
50226;BME280;36113;50.742;6.432;2023-03-20T04:41:06;112741.81;;;-145.50;100.00
50226;BME280;36113;50.742;6.432;2023-03-20T04:43:32;112741.81;;;-145.50;100.00
50226;BME280;36113;50.742;6.432;2023-03-20T04:45:58;112741.81;;;-145.50;100.00
50226;BME280;36113;50.742;6.432;2023-03-20T04:48:23;112741.81;;;-145.50;100.00
50226;BME280;36113;50.742;6.432;2023-03-20T04:50:49;112741.81;;;-145.50;100.00
50226;BME280;36113;50.742;6.432;2023-03-20T04:53:15;112741.81;;;-145.50;100.00
50226;BME280;36113;50.742;6.432;2023-03-20T04:55:41;112741.81;;;-145.50;100.00
50226;BME280;36113;50.742;6.432;2023-03-20T04:58:06;112741.81;;;-145.50;100.00
50226;BME280;36113;50.742;6.432;2023-03-20T05:00:32;112741.81;;;-145.50;100.00
50226;BME280;36113;50.742;6.432;2023-03-20T05:02:57;112741.81;;;-145.50;100.00
50226;BME280;36113;50.742;6.432;2023-03-20T05:05:23;112741.81;;;-145.50;100.00
50226;BME280;36113;50.742;6.432;2023-03-20T05:07:49;112741.81;;;-145.50;100.00
50226;BME280;36113;50.742;6.432;2023-03-20T05:10:15;112741.81;;;-145.50;100.00
50226;BME280;36113;50.742;6.432;2023-03-20T05:12:40;112741.81;;;-145.50;100.00
50226;BME280;36113;50.742;6.432;2023-03-20T05:15:06;112741.81;;;-145.50;100.00
50226;BME280;36113;50.742;6.432;2023-03-20T05:17:32;112741.81;;;-145.50;100.00
50226;BME280;36113;50.742;6.432;2023-03-20T05:19:57;112741.81;;;-145.50;100.00
50226;BME280;36113;50.742;6.432;2023-03-20T05:22:24;112741.81;;;-145.50;100.00
50226;BME280;36113;50.742;6.432;2023-03-20T05:24:49;112741.81;;;-145.50;100.00
50226;BME280;36113;50.742;6.432;2023-03-20T05:27:14;112741.81;;;-145.50;100.00
50226;BME280;36113;50.742;6.432;2023-03-20T05:29:40;112741.81;;;-145.50;100.00
50226;BME280;36113;50.742;6.432;2023-03-20T05:32:05;112741.81;;;-145.50;100.00
50226;BME280;36113;50.742;6.432;2023-03-20T05:34:30;112741.81;;;-145.50;100.00
50226;BME280;36113;50.742;6.432;2023-03-20T05:36:56;112741.81;;;-145.50;100.00
50226;BME280;36113;50.742;6.432;2023-03-20T05:39:21;112741.81;;;-145.50;100.00
50226;BME280;36113;50.742;6.432;2023-03-20T05:41:46;112741.81;;;-145.50;100.00
50226;BME280;36113;50.742;6.432;2023-03-20T05:44:12;112741.81;;;-145.50;100.00
50226;BME280;36113;50.742;6.432;2023-03-20T05:46:37;112741.81;;;-145.50;100.00
50226;BME280;36113;50.742;6.432;2023-03-20T05:49:03;112741.81;;;-145.50;100.00
50226;BME280;36113;50.742;6.432;2023-03-20T05:51:28;112741.81;;;-145.50;100.00
50226;BME280;36113;50.742;6.432;2023-03-20T05:53:54;112741.81;;;-145.50;100.00
50226;BME280;36113;50.742;6.432;2023-03-20T05:56:19;112741.81;;;-145.50;100.00
50226;BME280;36113;50.742;6.432;2023-03-20T05:58:45;112741.81;;;-145.50;100.00
50226;BME280;36113;50.742;6.432;2023-03-20T06:01:10;112741.81;;;-145.50;100.00
50226;BME280;36113;50.742;6.432;2023-03-20T06:03:35;112741.81;;;-145.50;100.00
50226;BME280;36113;50.742;6.432;2023-03-20T06:06:01;112741.81;;;-145.50;100.00
50226;BME280;36113;50.742;6.432;2023-03-20T06:08:27;112741.81;;;-145.50;100.00
50226;BME280;36113;50.742;6.432;2023-03-20T06:10:54;112741.81;;;-145.50;100.00
50226;BME280;36113;50.742;6.432;2023-03-20T06:13:19;112741.81;;;-145.50;100.00
50226;BME280;36113;50.742;6.432;2023-03-20T06:15:45;112741.81;;;-145.50;100.00
50226;BME280;36113;50.742;6.432;2023-03-20T06:18:10;112741.81;;;-145.50;100.00
50226;BME280;36113;50.742;6.432;2023-03-20T06:20:35;112741.81;;;-145.50;99.92
50226;BME280;36113;50.742;6.432;2023-03-20T06:23:01;112741.81;;;-145.50;99.54
50226;BME280;36113;50.742;6.432;2023-03-20T06:25:26;112741.81;;;-145.50;99.27
50226;BME280;36113;50.742;6.432;2023-03-20T06:27:51;112741.81;;;-145.50;99.19
50226;BME280;36113;50.742;6.432;2023-03-20T06:30:17;112741.81;;;-145.50;99.12
50226;BME280;36113;50.742;6.432;2023-03-20T06:32:42;112741.81;;;-145.50;99.30
50226;BME280;36113;50.742;6.432;2023-03-20T06:35:08;112741.81;;;-145.50;99.45
50226;BME280;36113;50.742;6.432;2023-03-20T06:37:34;112741.81;;;-145.50;99.68
50226;BME280;36113;50.742;6.432;2023-03-20T06:40:01;112741.81;;;-145.50;99.58
50226;BME280;36113;50.742;6.432;2023-03-20T06:42:27;112741.81;;;-145.50;99.52
50226;BME280;36113;50.742;6.432;2023-03-20T06:44:53;112741.81;;;-145.50;99.53
50226;BME280;36113;50.742;6.432;2023-03-20T06:47:18;112741.81;;;-145.50;99.23
50226;BME280;36113;50.742;6.432;2023-03-20T06:49:43;112741.81;;;-145.50;99.13
50226;BME280;36113;50.742;6.432;2023-03-20T06:52:17;112741.81;;;-145.50;98.87
50226;BME280;36113;50.742;6.432;2023-03-20T06:54:43;112741.81;;;-145.50;98.59
50226;BME280;36113;50.742;6.432;2023-03-20T06:57:08;112741.81;;;-145.50;98.25
50226;BME280;36113;50.742;6.432;2023-03-20T06:59:34;112741.81;;;-145.50;98.13
50226;BME280;36113;50.742;6.432;2023-03-20T07:02:00;112741.81;;;-145.50;97.55
50226;BME280;36113;50.742;6.432;2023-03-20T07:04:26;112741.81;;;-145.50;97.42
50226;BME280;36113;50.742;6.432;2023-03-20T07:06:51;112741.81;;;-145.50;97.09
50226;BME280;36113;50.742;6.432;2023-03-20T07:09:17;112741.81;;;-145.50;94.95
50226;BME280;36113;50.742;6.432;2023-03-20T07:11:42;112741.81;;;-145.50;93.00
50226;BME280;36113;50.742;6.432;2023-03-20T07:14:09;112741.81;;;-145.50;92.88
50226;BME280;36113;50.742;6.432;2023-03-20T07:16:34;112741.81;;;-145.50;92.10
50226;BME280;36113;50.742;6.432;2023-03-20T07:19:00;112741.81;;;-145.50;92.12
50226;BME280;36113;50.742;6.432;2023-03-20T07:21:25;112741.81;;;-145.50;92.34
50226;BME280;36113;50.742;6.432;2023-03-20T07:23:50;112741.81;;;-145.50;91.42
50226;BME280;36113;50.742;6.432;2023-03-20T07:26:16;112741.81;;;-145.50;91.25
50226;BME280;36113;50.742;6.432;2023-03-20T07:28:41;112741.81;;;-145.50;90.03
50226;BME280;36113;50.742;6.432;2023-03-20T07:31:10;112741.81;;;-145.50;89.63
50226;BME280;36113;50.742;6.432;2023-03-20T07:33:42;112741.81;;;-145.50;90.34
50226;BME280;36113;50.742;6.432;2023-03-20T07:36:07;112741.81;;;-145.50;90.11
50226;BME280;36113;50.742;6.432;2023-03-20T07:38:33;112741.81;;;-145.50;90.94
50226;BME280;36113;50.742;6.432;2023-03-20T07:40:58;112741.81;;;-145.50;90.42
50226;BME280;36113;50.742;6.432;2023-03-20T07:43:23;112741.81;;;-145.50;89.54
50226;BME280;36113;50.742;6.432;2023-03-20T07:45:48;112741.81;;;-145.50;89.12
50226;BME280;36113;50.742;6.432;2023-03-20T07:48:14;112741.81;;;-145.50;89.01
50226;BME280;36113;50.742;6.432;2023-03-20T07:50:39;112741.81;;;-145.50;89.26
50226;BME280;36113;50.742;6.432;2023-03-20T07:53:04;112741.81;;;-145.50;88.77
50226;BME280;36113;50.742;6.432;2023-03-20T07:55:30;112741.81;;;-145.50;88.48
50226;BME280;36113;50.742;6.432;2023-03-20T07:57:55;112741.81;;;-145.50;87.72
50226;BME280;36113;50.742;6.432;2023-03-20T08:00:20;112741.81;;;-145.50;88.04
50226;BME280;36113;50.742;6.432;2023-03-20T08:02:46;112741.81;;;-145.50;87.90
50226;BME280;36113;50.742;6.432;2023-03-20T08:05:11;112741.81;;;-145.50;87.38
50226;BME280;36113;50.742;6.432;2023-03-20T08:07:36;112741.81;;;-145.50;86.92
50226;BME280;36113;50.742;6.432;2023-03-20T08:10:02;112741.81;;;-145.50;86.13
50226;BME280;36113;50.742;6.432;2023-03-20T08:12:28;112741.81;;;-145.50;85.51
50226;BME280;36113;50.742;6.432;2023-03-20T08:14:53;112741.81;;;-145.50;85.33
50226;BME280;36113;50.742;6.432;2023-03-20T08:17:19;112741.81;;;-145.50;85.55
50226;BME280;36113;50.742;6.432;2023-03-20T08:19:44;112741.81;;;-145.50;86.08
50226;BME280;36113;50.742;6.432;2023-03-20T08:22:10;112741.81;;;-145.50;85.84
50226;BME280;36113;50.742;6.432;2023-03-20T08:24:35;112741.81;;;-145.50;86.32
50226;BME280;36113;50.742;6.432;2023-03-20T08:27:01;112741.81;;;-145.50;85.33
50226;BME280;36113;50.742;6.432;2023-03-20T08:29:26;112741.81;;;-145.50;85.46
50226;BME280;36113;50.742;6.432;2023-03-20T08:31:51;112741.81;;;-145.50;84.89
50226;BME280;36113;50.742;6.432;2023-03-20T08:34:17;112741.81;;;-145.50;83.73
50226;BME280;36113;50.742;6.432;2023-03-20T08:36:43;112741.81;;;-145.50;83.73
50226;BME280;36113;50.742;6.432;2023-03-20T08:39:09;112741.81;;;-145.50;84.18
50226;BME280;36113;50.742;6.432;2023-03-20T08:41:37;112741.81;;;-145.50;84.12
50226;BME280;36113;50.742;6.432;2023-03-20T08:44:04;112741.81;;;-145.50;83.62
50226;BME280;36113;50.742;6.432;2023-03-20T08:46:29;112741.81;;;-145.50;82.24
50226;BME280;36113;50.742;6.432;2023-03-20T08:48:54;112741.81;;;-145.50;82.11
50226;BME280;36113;50.742;6.432;2023-03-20T08:51:20;112741.81;;;-145.50;80.70
50226;BME280;36113;50.742;6.432;2023-03-20T08:53:45;112741.81;;;-145.50;80.96
50226;BME280;36113;50.742;6.432;2023-03-20T08:56:10;112741.81;;;-145.50;80.01
50226;BME280;36113;50.742;6.432;2023-03-20T08:58:36;112741.81;;;-145.50;79.56
50226;BME280;36113;50.742;6.432;2023-03-20T09:01:04;112741.81;;;-145.50;79.39
50226;BME280;36113;50.742;6.432;2023-03-20T09:03:29;112741.81;;;-145.50;79.23
50226;BME280;36113;50.742;6.432;2023-03-20T09:05:55;112741.81;;;-145.50;80.04
50226;BME280;36113;50.742;6.432;2023-03-20T09:08:21;112741.81;;;-145.50;78.31
50226;BME280;36113;50.742;6.432;2023-03-20T09:10:47;112741.81;;;-145.50;77.63
50226;BME280;36113;50.742;6.432;2023-03-20T09:13:13;112741.81;;;-145.50;77.59
50226;BME280;36113;50.742;6.432;2023-03-20T09:15:39;112741.81;;;-145.50;76.14
50226;BME280;36113;50.742;6.432;2023-03-20T09:18:04;112741.81;;;-145.50;76.35
50226;BME280;36113;50.742;6.432;2023-03-20T09:20:30;112741.81;;;-145.50;75.53
50226;BME280;36113;50.742;6.432;2023-03-20T09:22:55;112741.81;;;-145.50;74.08
50226;BME280;36113;50.742;6.432;2023-03-20T09:25:21;112741.81;;;-145.50;73.65
50226;BME280;36113;50.742;6.432;2023-03-20T09:27:50;112741.81;;;-145.50;71.78
50226;BME280;36113;50.742;6.432;2023-03-20T09:30:16;112741.81;;;-145.50;72.21
50226;BME280;36113;50.742;6.432;2023-03-20T09:32:41;112741.81;;;-145.50;71.39
50226;BME280;36113;50.742;6.432;2023-03-20T09:35:06;112741.81;;;-145.50;70.09
50226;BME280;36113;50.742;6.432;2023-03-20T09:37:32;112741.81;;;-145.50;70.36
50226;BME280;36113;50.742;6.432;2023-03-20T09:39:57;112741.81;;;-145.50;69.05
50226;BME280;36113;50.742;6.432;2023-03-20T09:46:07;112741.81;;;-145.50;71.31
50226;BME280;36113;50.742;6.432;2023-03-20T09:49:14;112741.81;;;-145.50;67.51
50226;BME280;36113;50.742;6.432;2023-03-20T09:51:50;112741.81;;;-145.50;66.30
50226;BME280;36113;50.742;6.432;2023-03-20T09:56:49;112741.81;;;-145.50;66.57
50226;BME280;36113;50.742;6.432;2023-03-20T09:59:17;112741.81;;;-145.50;64.50
50226;BME280;36113;50.742;6.432;2023-03-20T10:04:17;112741.81;;;-145.50;65.24
50226;BME280;36113;50.742;6.432;2023-03-20T10:06:42;112741.81;;;-145.50;66.16
50226;BME280;36113;50.742;6.432;2023-03-20T10:09:20;112741.81;;;-145.50;66.66
50226;BME280;36113;50.742;6.432;2023-03-20T10:19:57;112741.81;;;-145.50;70.12
50226;BME280;36113;50.742;6.432;2023-03-20T10:22:37;112741.81;;;-145.50;70.84
50226;BME280;36113;50.742;6.432;2023-03-20T10:25:27;112741.81;;;-145.50;70.88
50226;BME280;36113;50.742;6.432;2023-03-20T10:27:57;112741.81;;;-145.50;70.86
50226;BME280;36113;50.742;6.432;2023-03-20T10:33:18;112741.81;;;-145.50;69.53
50226;BME280;36113;50.742;6.432;2023-03-20T10:36:20;112741.81;;;-145.50;68.32
50226;BME280;36113;50.742;6.432;2023-03-20T10:39:21;112741.81;;;-145.50;66.00
50226;BME280;36113;50.742;6.432;2023-03-20T10:41:57;112741.81;;;-145.50;66.87
50226;BME280;36113;50.742;6.432;2023-03-20T10:44:39;112741.81;;;-145.50;66.74
50226;BME280;36113;50.742;6.432;2023-03-20T10:47:09;112741.81;;;-145.50;67.14
50226;BME280;36113;50.742;6.432;2023-03-20T10:49:47;112741.81;;;-145.50;66.50
50226;BME280;36113;50.742;6.432;2023-03-20T10:52:21;112741.81;;;-145.50;67.97
50226;BME280;36113;50.742;6.432;2023-03-20T10:54:54;112741.81;;;-145.50;68.22
50226;BME280;36113;50.742;6.432;2023-03-20T10:57:26;112741.81;;;-145.50;66.91
50226;BME280;36113;50.742;6.432;2023-03-20T10:59:56;112741.81;;;-145.50;67.79
50226;BME280;36113;50.742;6.432;2023-03-20T11:02:27;112741.81;;;-145.50;68.47
50226;BME280;36113;50.742;6.432;2023-03-20T11:04:53;112741.81;;;-145.50;69.16
50226;BME280;36113;50.742;6.432;2023-03-20T11:07:25;112741.81;;;-145.50;68.27
50226;BME280;36113;50.742;6.432;2023-03-20T11:10:17;112741.81;;;-145.50;68.04
50226;BME280;36113;50.742;6.432;2023-03-20T11:12:45;112741.81;;;-145.50;67.27
50226;BME280;36113;50.742;6.432;2023-03-20T11:15:25;112741.81;;;-145.50;66.35
50226;BME280;36113;50.742;6.432;2023-03-20T11:17:53;112741.81;;;-145.50;67.17
50226;BME280;36113;50.742;6.432;2023-03-20T11:20:19;112741.81;;;-145.50;68.17
50226;BME280;36113;50.742;6.432;2023-03-20T11:22:46;112741.81;;;-145.50;67.88
50226;BME280;36113;50.742;6.432;2023-03-20T11:25:49;112741.81;;;-145.50;66.81
50226;BME280;36113;50.742;6.432;2023-03-20T11:28:35;112741.81;;;-145.50;66.51
50226;BME280;36113;50.742;6.432;2023-03-20T11:33:45;112741.81;;;-145.50;67.70
50226;BME280;36113;50.742;6.432;2023-03-20T11:36:24;112741.81;;;-145.50;68.47
50226;BME280;36113;50.742;6.432;2023-03-20T11:38:51;112741.81;;;-145.50;68.88
50226;BME280;36113;50.742;6.432;2023-03-20T11:41:27;112741.81;;;-145.50;69.58
50226;BME280;36113;50.742;6.432;2023-03-20T11:43:53;112741.81;;;-145.50;69.36
50226;BME280;36113;50.742;6.432;2023-03-20T11:46:21;112741.81;;;-145.50;70.46
50226;BME280;36113;50.742;6.432;2023-03-20T11:49:16;112741.81;;;-145.50;70.84
50226;BME280;36113;50.742;6.432;2023-03-20T11:51:43;112741.81;;;-145.50;72.39
50226;BME280;36113;50.742;6.432;2023-03-20T11:54:15;112741.81;;;-145.50;72.71
50226;BME280;36113;50.742;6.432;2023-03-20T11:56:56;112741.81;;;-145.50;73.26
50226;BME280;36113;50.742;6.432;2023-03-20T11:59:26;112741.81;;;-145.50;72.68
50226;BME280;36113;50.742;6.432;2023-03-20T12:01:56;112741.81;;;-145.50;74.06
50226;BME280;36113;50.742;6.432;2023-03-20T12:04:34;112741.81;;;-145.50;73.28
50226;BME280;36113;50.742;6.432;2023-03-20T12:07:21;112741.81;;;-145.50;73.93
50226;BME280;36113;50.742;6.432;2023-03-20T12:10:11;112741.81;;;-145.50;74.20
50226;BME280;36113;50.742;6.432;2023-03-20T12:15:25;112741.81;;;-145.50;76.93
50226;BME280;36113;50.742;6.432;2023-03-20T12:18:00;112741.81;;;-145.50;77.22
50226;BME280;36113;50.742;6.432;2023-03-20T12:20:31;112741.81;;;-145.50;78.42
50226;BME280;36113;50.742;6.432;2023-03-20T12:25:56;112741.81;;;-145.50;78.65
50226;BME280;36113;50.742;6.432;2023-03-20T12:28:45;112741.81;;;-145.50;80.08
50226;BME280;36113;50.742;6.432;2023-03-20T12:36:50;112741.81;;;-145.50;79.84
50226;BME280;36113;50.742;6.432;2023-03-20T12:39:21;112741.81;;;-145.50;80.08
50226;BME280;36113;50.742;6.432;2023-03-20T12:44:54;112741.81;;;-145.50;77.83
50226;BME280;36113;50.742;6.432;2023-03-20T12:50:17;112741.81;;;-145.50;76.12
50226;BME280;36113;50.742;6.432;2023-03-20T13:00:31;112741.81;;;-145.50;74.15
50226;BME280;36113;50.742;6.432;2023-03-20T13:05:32;112741.81;;;-145.50;72.74
50226;BME280;36113;50.742;6.432;2023-03-20T13:10:52;112741.81;;;-145.50;72.09
50226;BME280;36113;50.742;6.432;2023-03-20T13:21:21;112741.81;;;-145.50;72.51
50226;BME280;36113;50.742;6.432;2023-03-20T13:24:08;112741.81;;;-145.50;71.88
50226;BME280;36113;50.742;6.432;2023-03-20T13:29:48;112741.81;;;-145.50;70.87
50226;BME280;36113;50.742;6.432;2023-03-20T13:32:41;112741.81;;;-145.50;70.71
50226;BME280;36113;50.742;6.432;2023-03-20T13:40:40;112741.81;;;-145.50;70.36
50226;BME280;36113;50.742;6.432;2023-03-20T13:46:15;112741.81;;;-145.50;70.06
50226;BME280;36113;50.742;6.432;2023-03-20T13:48:43;112741.81;;;-145.50;68.46
50226;BME280;36113;50.742;6.432;2023-03-20T14:04:13;112741.81;;;-145.50;65.11
50226;BME280;36113;50.742;6.432;2023-03-20T14:06:47;112741.81;;;-145.50;66.46
50226;BME280;36113;50.742;6.432;2023-03-20T14:09:31;112741.81;;;-145.50;65.62
50226;BME280;36113;50.742;6.432;2023-03-20T14:12:05;112741.81;;;-145.50;65.26
50226;BME280;36113;50.742;6.432;2023-03-20T14:14:39;112741.81;;;-145.50;66.34
50226;BME280;36113;50.742;6.432;2023-03-20T14:17:20;112741.81;;;-145.50;67.80
50226;BME280;36113;50.742;6.432;2023-03-20T14:19:47;112741.81;;;-145.50;68.83
50226;BME280;36113;50.742;6.432;2023-03-20T14:22:17;112741.81;;;-145.50;66.86
50226;BME280;36113;50.742;6.432;2023-03-20T14:24:55;112741.81;;;-145.50;66.82
50226;BME280;36113;50.742;6.432;2023-03-20T14:27:24;112741.81;;;-145.50;65.49
50226;BME280;36113;50.742;6.432;2023-03-20T14:29:50;112741.81;;;-145.50;65.36
50226;BME280;36113;50.742;6.432;2023-03-20T14:40:16;112741.81;;;-145.50;64.09
50226;BME280;36113;50.742;6.432;2023-03-20T14:42:54;112741.81;;;-145.50;64.00
50226;BME280;36113;50.742;6.432;2023-03-20T14:45:44;112741.81;;;-145.50;64.37
50226;BME280;36113;50.742;6.432;2023-03-20T14:48:33;112741.81;;;-145.50;63.04
50226;BME280;36113;50.742;6.432;2023-03-20T14:53:30;112741.81;;;-145.50;64.34
50226;BME280;36113;50.742;6.432;2023-03-20T14:56:08;112741.81;;;-145.50;65.50
50226;BME280;36113;50.742;6.432;2023-03-20T14:58:50;112741.81;;;-145.50;66.41
50226;BME280;36113;50.742;6.432;2023-03-20T15:01:24;112741.81;;;-145.50;65.26